Time;durP1;ratioP1;P1;durP2;ratioP2;P2;SDS_P1;SDS_P2;PMS_P1;PMS_P2;Temp;Humidity;BMP_temperature;BMP_pressure;BME280_temperature;BME280_humidity;BME280_pressure;Samples;Min_cycle;Max_cycle;Signal;HPM_P1;HPM_P2
2024/01/13 00:01:47;;;;;;;1.70;1.60;;;;;;;-0.06;100.00;59729.03;5031047;28;20259;-65
2024/01/13 00:04:12;;;;;;;2.30;2.13;;;;;;;-0.39;100.00;59745.00;5031007;28;20294;-63
2024/01/13 00:06:37;;;;;;;1.57;1.47;;;;;;;-0.29;100.00;59773.69;5030970;28;20187;-64
2024/01/13 00:09:03;;;;;;;2.33;2.13;;;;;;;-0.17;100.00;59749.41;5030889;28;20171;-62
2024/01/13 00:11:28;;;;;;;2.47;2.27;;;;;;;-0.31;100.00;59736.31;5030604;28;20261;-68
2024/01/13 00:13:54;;;;;;;2.27;2.17;;;;;;;-0.10;100.00;59781.72;5030862;28;20252;-66
2024/01/13 00:16:19;;;;;;;1.93;1.63;;;;;;;-0.61;100.00;59677.91;5031359;28;20167;-65
2024/01/13 00:18:45;;;;;;;1.60;1.50;;;;;;;-0.15;100.00;59761.09;5030657;28;20169;-65
2024/01/13 00:21:10;;;;;;;3.03;2.73;;;;;;;-0.46;100.00;59717.69;5030794;28;20180;-65
2024/01/13 00:23:36;;;;;;;1.33;1.33;;;;;;;-0.21;100.00;59732.41;5030473;28;20258;-67
2024/01/13 00:26:02;;;;;;;1.70;1.60;;;;;;;-0.22;100.00;59731.28;5030706;28;20161;-61
2024/01/13 00:28:27;;;;;;;2.00;1.77;;;;;;;-0.56;100.00;59665.94;5029840;28;20230;-65
2024/01/13 00:30:53;;;;;;;2.43;2.33;;;;;;;-0.60;100.00;59716.63;5030941;28;20658;-64
2024/01/13 00:33:18;;;;;;;2.27;2.17;;;;;;;-0.32;100.00;59827.47;5030169;28;20338;-66
2024/01/13 00:35:44;;;;;;;2.10;2.00;;;;;;;-0.08;100.00;59784.50;5034341;28;20657;-61
2024/01/13 00:38:09;;;;;;;3.37;2.27;;;;;;;-0.39;100.00;59865.34;5030031;28;20176;-62
2024/01/13 00:40:34;;;;;;;1.30;1.30;;;;;;;-0.45;100.00;59748.91;5031304;28;20234;-65
2024/01/13 00:43:00;;;;;;;1.87;1.77;;;;;;;-0.40;100.00;59748.88;5033477;28;20350;-64
2024/01/13 00:45:25;;;;;;;1.27;1.27;;;;;;;-0.41;100.00;59705.16;5033457;28;20552;-66
2024/01/13 00:47:51;;;;;;;1.80;1.70;;;;;;;-0.20;100.00;59748.56;5033411;28;20246;-67
2024/01/13 00:50:16;;;;;;;2.57;2.40;;;;;;;-0.33;100.00;59711.00;5032913;28;20186;-66
2024/01/13 00:52:42;;;;;;;2.20;2.03;;;;;;;-0.14;100.00;59727.09;5033122;28;20191;-64
2024/01/13 00:55:08;;;;;;;2.43;2.23;;;;;;;-0.18;100.00;59732.66;5033091;28;20182;-63
2024/01/13 00:57:33;;;;;;;1.73;1.63;;;;;;;-0.14;100.00;59757.19;5033084;28;20172;-64
2024/01/13 00:59:58;;;;;;;2.13;2.03;;;;;;;-0.31;100.00;59755.84;4469434;28;21397;-65
2024/01/13 01:02:24;;;;;;;4.80;2.07;;;;;;;-0.20;100.00;59765.56;5033145;28;20212;-66
2024/01/13 01:04:49;;;;;;;1.87;1.77;;;;;;;-0.18;100.00;59765.28;5032788;28;20171;-65
2024/01/13 01:07:15;;;;;;;1.30;1.30;;;;;;;-0.32;100.00;59780.34;5031290;28;20218;-65
2024/01/13 01:09:42;;;;;;;1.20;1.20;;;;;;;-0.01;100.00;59787.28;5032365;28;20164;-66
2024/01/13 01:12:08;;;;;;;3.40;2.63;;;;;;;-0.42;100.00;59776.75;5032445;28;20648;-64
2024/01/13 01:14:33;;;;;;;1.70;1.60;;;;;;;0.00;100.00;59800.91;5032438;28;20700;-63
2024/01/13 01:16:59;;;;;;;1.23;1.23;;;;;;;-0.12;100.00;59827.16;5032240;28;20168;-62
2024/01/13 01:19:24;;;;;;;1.33;1.30;;;;;;;-0.25;100.00;59768.09;5032374;28;20198;-64
2024/01/13 01:21:49;;;;;;;2.77;2.40;;;;;;;-0.24;100.00;59881.53;5032320;28;20545;-64
2024/01/13 01:24:15;;;;;;;1.47;1.40;;;;;;;-0.07;100.00;59845.25;5032102;28;20525;-65
2024/01/13 01:26:40;;;;;;;1.73;1.63;;;;;;;-0.24;100.00;59786.75;5032173;28;20246;-67
2024/01/13 01:29:06;;;;;;;2.20;2.00;;;;;;;-0.39;100.00;59757.53;5032273;28;20526;-64
2024/01/13 01:31:32;;;;;;;2.50;2.30;;;;;;;-0.45;100.00;59756.41;5032088;28;20175;-63
2024/01/13 01:33:57;;;;;;;2.13;1.93;;;;;;;-0.39;100.00;59769.50;4993858;28;1120101;-65
2024/01/13 01:36:23;;;;;;;2.23;2.03;;;;;;;-0.17;100.00;59761.94;5033159;28;20176;-64
2024/01/13 01:38:48;;;;;;;2.37;2.17;;;;;;;-0.41;100.00;59817.41;5032875;28;20172;-67
2024/01/13 01:41:14;;;;;;;2.33;2.13;;;;;;;-0.20;100.00;59813.78;5032430;28;20198;-66
2024/01/13 01:43:40;;;;;;;1.83;1.73;;;;;;;-0.15;100.00;59826.31;5034834;28;20259;-62
2024/01/13 01:46:06;;;;;;;1.73;1.53;;;;;;;-0.45;100.00;59804.06;5033478;28;20608;-65
2024/01/13 01:48:37;;;;;;;3.40;2.13;;;;;;;-0.39;100.00;59960.09;5031099;28;20172;-64
2024/01/13 01:51:04;;;;;;;2.07;1.93;;;;;;;-0.50;100.00;59823.00;5030764;28;20180;-63
2024/01/13 01:53:30;;;;;;;1.43;1.33;;;;;;;-0.52;100.00;59843.91;5030837;28;20631;-64
2024/01/13 01:55:57;;;;;;;1.77;1.67;;;;;;;-0.61;100.00;59773.72;5031507;28;20167;-64
2024/01/13 01:58:23;;;;;;;1.63;1.53;;;;;;;-0.20;100.00;59810.72;5033434;28;20210;-65
2024/01/13 02:00:49;;;;;;;1.87;1.77;;;;;;;-0.36;100.00;60004.13;5033387;28;20259;-66
2024/01/13 02:03:14;;;;;;;1.73;1.63;;;;;;;-0.36;100.00;59818.53;5033156;28;20194;-64
2024/01/13 02:05:40;;;;;;;2.70;2.50;;;;;;;-0.88;100.00;59718.06;5033211;28;20661;-65
2024/01/13 02:08:06;;;;;;;2.23;2.03;;;;;;;-0.61;100.00;59805.75;5032591;28;20258;-65
2024/01/13 02:10:32;;;;;;;2.47;2.20;;;;;;;-0.31;100.00;59838.59;5033348;28;20172;-63
2024/01/13 02:12:57;;;;;;;1.53;1.43;;;;;;;-0.29;100.00;59851.41;5033065;28;20211;-66
2024/01/13 02:15:23;;;;;;;1.70;1.60;;;;;;;-0.45;100.00;59869.25;5033084;28;20269;-66
2024/01/13 02:17:48;;;;;;;1.10;1.10;;;;;;;-0.22;100.00;59846.66;5032611;28;20263;-65
2024/01/13 02:20:13;;;;;;;2.20;2.10;;;;;;;-0.17;100.00;59989.66;5032829;28;20669;-64
2024/01/13 02:22:39;;;;;;;1.10;1.10;;;;;;;-0.20;100.00;59866.47;5032564;28;20183;-67
2024/01/13 02:25:05;;;;;;;1.70;1.60;;;;;;;-0.49;100.00;59859.78;5033194;28;20247;-64
2024/01/13 02:27:31;;;;;;;1.87;1.77;;;;;;;-0.30;100.00;59860.34;5032646;28;20184;-68
2024/01/13 02:29:56;;;;;;;1.10;1.10;;;;;;;-0.59;100.00;59850.59;5032635;28;20677;-67
2024/01/13 02:32:22;;;;;;;1.60;1.50;;;;;;;-0.64;100.00;59835.53;5032579;28;20242;-67
2024/01/13 02:34:47;;;;;;;2.00;1.90;;;;;;;-0.50;100.00;59996.00;5032387;28;20627;-63
2024/01/13 02:37:13;;;;;;;1.20;1.20;;;;;;;-0.27;100.00;59886.25;5032255;28;20639;-65
2024/01/13 02:39:38;;;;;;;1.20;1.20;;;;;;;-0.44;100.00;59894.88;5032460;28;20175;-65
2024/01/13 02:42:04;;;;;;;1.53;1.43;;;;;;;-0.30;100.00;60028.38;5032398;28;20203;-66
2024/01/13 02:44:29;;;;;;;3.77;2.30;;;;;;;-0.20;100.00;59851.41;5032366;28;20267;-65
2024/01/13 02:46:56;;;;;;;1.80;1.70;;;;;;;-0.66;100.00;59875.38;5032351;28;20650;-66
2024/01/13 02:49:21;;;;;;;3.40;2.10;;;;;;;-0.38;100.00;59901.03;5032230;28;20171;-64
2024/01/13 02:51:46;;;;;;;2.47;1.83;;;;;;;-0.49;100.00;59872.31;5032681;28;20668;-62
2024/01/13 02:54:12;;;;;;;1.60;1.50;;;;;;;-0.28;100.00;59867.59;5036788;28;20179;-65
2024/01/13 02:56:37;;;;;;;1.60;1.50;;;;;;;-0.65;100.00;59848.94;5032025;28;20628;-65
2024/01/13 02:59:03;;;;;;;3.33;1.47;;;;;;;-0.35;100.00;60085.50;5032138;28;20610;-65
2024/01/13 03:01:31;;;;;;;3.03;2.27;;;;;;;-0.52;100.00;59865.91;5032241;28;20215;-65
2024/01/13 03:03:56;;;;;;;2.53;1.47;;;;;;;-0.39;100.00;59884.84;5026236;28;20179;-66
2024/01/13 03:06:23;;;;;;;1.73;1.63;;;;;;;-0.62;100.00;59839.72;5040422;28;20187;-65
2024/01/13 03:08:49;;;;;;;1.20;1.20;;;;;;;-0.72;100.00;59846.69;5032061;28;20207;-66
2024/01/13 03:11:14;;;;;;;1.83;1.73;;;;;;;-0.24;100.00;60163.03;5031834;28;20180;-65
2024/01/13 03:13:40;;;;;;;2.17;2.07;;;;;;;-0.23;100.00;59918.28;5031707;28;20207;-64
2024/01/13 03:16:06;;;;;;;2.27;1.77;;;;;;;-0.47;100.00;59853.94;5031747;28;20661;-66
2024/01/13 03:18:31;;;;;;;1.70;1.60;;;;;;;-0.48;100.00;59860.34;5031515;28;20171;-63
2024/01/13 03:20:57;;;;;;;1.60;1.50;;;;;;;-0.18;100.00;59888.19;5031558;28;20690;-63
2024/01/13 03:23:22;;;;;;;4.47;2.00;;;;;;;-0.33;100.00;59884.59;5032205;28;20182;-65
2024/01/13 03:25:48;;;;;;;1.70;1.60;;;;;;;-0.52;100.00;60031.94;5031924;28;20206;-63
2024/01/13 03:28:13;;;;;;;2.03;1.93;;;;;;;-0.56;100.00;59879.56;5031638;28;20262;-64
2024/01/13 03:30:39;;;;;;;1.37;1.33;;;;;;;-0.54;100.00;59951.44;5031733;28;20267;-64
2024/01/13 03:33:04;;;;;;;1.73;1.63;;;;;;;-0.65;100.00;59856.44;5031252;28;20227;-66
2024/01/13 03:35:30;;;;;;;2.53;1.70;;;;;;;-0.39;100.00;59890.44;5031140;28;20175;-62
2024/01/13 03:37:55;;;;;;;1.87;1.77;;;;;;;-0.56;100.00;60057.00;5031683;28;20172;-66
2024/01/13 03:40:21;;;;;;;1.53;1.43;;;;;;;-0.49;100.00;59872.31;5031399;28;20654;-63
2024/01/13 03:42:46;;;;;;;1.87;1.77;;;;;;;-0.46;100.00;59927.75;5030937;28;20604;-65
2024/01/13 03:45:15;;;;;;;1.60;1.53;;;;;;;-0.39;100.00;59937.53;5031263;28;20263;-63
2024/01/13 03:47:40;;;;;;;1.60;1.50;;;;;;;-0.23;100.00;59922.78;5030851;28;20203;-63
2024/01/13 03:50:07;;;;;;;1.80;1.70;;;;;;;-0.31;100.00;59876.78;5031030;28;20643;-63
2024/01/13 03:52:33;;;;;;;1.30;1.30;;;;;;;-0.78;100.00;59875.09;5031020;28;20203;-65
2024/01/13 03:54:59;;;;;;;1.97;1.87;;;;;;;-0.52;100.00;59911.03;5031210;28;20643;-67
2024/01/13 03:57:25;;;;;;;1.67;1.57;;;;;;;-0.30;100.00;59908.00;5030833;28;20203;-65
2024/01/13 03:59:50;;;;;;;1.37;1.33;;;;;;;-0.65;100.00;60041.94;5031305;28;20171;-65
2024/01/13 04:02:15;;;;;;;2.10;2.00;;;;;;;-0.45;100.00;59954.50;5036156;28;20183;-65
2024/01/13 04:04:41;;;;;;;2.63;2.07;;;;;;;-0.65;100.00;60042.50;5030807;28;20258;-65
2024/01/13 04:07:07;;;;;;;1.57;1.47;;;;;;;-0.25;100.00;59935.59;5031409;28;20179;-63
2024/01/13 04:09:33;;;;;;;2.13;2.03;;;;;;;-0.36;100.00;59878.72;5030936;28;20215;-65
2024/01/13 04:11:59;;;;;;;4.13;2.50;;;;;;;-0.57;100.00;60076.50;5029543;28;20190;-64
2024/01/13 04:14:24;;;;;;;1.47;1.43;;;;;;;-0.54;100.00;59896.84;5029706;28;20172;-65
2024/01/13 04:16:50;;;;;;;2.27;2.13;;;;;;;-0.91;100.00;59863.66;5030775;28;20187;-65
2024/01/13 04:19:15;;;;;;;1.90;1.80;;;;;;;-0.76;100.00;59894.31;5030631;28;20311;-63
2024/01/13 04:21:41;;;;;;;1.30;1.30;;;;;;;-0.58;100.00;59887.34;5030833;28;20183;-63
2024/01/13 04:24:07;;;;;;;3.77;1.90;;;;;;;-0.91;100.00;59868.66;5030700;28;20673;-68
2024/01/13 04:26:32;;;;;;;1.60;1.50;;;;;;;-0.92;100.00;60027.91;5030583;28;20186;-64
2024/01/13 04:28:58;;;;;;;2.40;1.77;;;;;;;-0.71;100.00;59925.50;5030811;28;20634;-68
2024/01/13 04:31:23;;;;;;;1.20;1.20;;;;;;;-0.77;100.00;59880.66;5030774;28;20305;-65
2024/01/13 04:33:48;;;;;;;1.87;1.77;;;;;;;-1.05;100.00;59868.09;5030310;28;20262;-68
2024/01/13 04:36:14;;;;;;;2.03;1.83;;;;;;;-0.65;100.00;59871.50;5030928;28;20167;-64
2024/01/13 04:38:40;;;;;;;1.80;1.70;;;;;;;-0.66;100.00;59858.41;5030740;28;20610;-66
2024/01/13 04:41:05;;;;;;;1.60;1.50;;;;;;;-0.85;100.00;60077.78;5027767;28;20245;-62
2024/01/13 04:43:31;;;;;;;2.60;1.93;;;;;;;-1.04;100.00;59884.25;5030033;28;20172;-64
2024/01/13 04:45:56;;;;;;;1.23;1.23;;;;;;;-0.72;100.00;59874.25;5030238;28;20373;-62
2024/01/13 04:48:22;;;;;;;1.60;1.50;;;;;;;-0.97;100.00;59839.44;5029631;28;20179;-65
2024/01/13 04:50:47;;;;;;;1.23;1.23;;;;;;;-0.86;100.00;59920.75;5030273;28;20176;-66
2024/01/13 04:53:13;;;;;;;1.70;1.60;;;;;;;-0.90;100.00;59879.25;5029466;28;20319;-66
2024/01/13 04:55:38;;;;;;;1.60;1.50;;;;;;;-0.68;100.00;60044.16;5030495;28;20592;-63
2024/01/13 04:58:04;;;;;;;2.50;1.97;;;;;;;-0.72;100.00;59891.25;5030193;28;20179;-68
2024/01/13 05:00:31;;;;;;;3.13;1.87;;;;;;;-0.65;100.00;59901.56;5029977;28;20619;-65
2024/01/13 05:02:57;;;;;;;1.20;1.20;;;;;;;-0.75;100.00;59945.56;5029761;28;20172;-66
2024/01/13 05:05:22;;;;;;;1.60;1.50;;;;;;;-0.86;100.00;59863.09;5029835;28;20221;-65
2024/01/13 05:07:48;;;;;;;1.37;1.37;;;;;;;-0.88;100.00;59957.19;5029775;28;20186;-65
2024/01/13 05:10:14;;;;;;;1.67;1.57;;;;;;;-1.05;100.00;59838.03;5033793;28;20182;-61
2024/01/13 05:12:39;;;;;;;1.60;1.50;;;;;;;-1.07;100.00;59865.31;5031283;28;20211;-64
2024/01/13 05:15:05;;;;;;;5.97;1.83;;;;;;;-1.00;100.00;59871.16;5030079;28;20179;-65
2024/01/13 05:17:31;;;;;;;1.10;1.10;;;;;;;-0.74;100.00;59884.56;5029910;28;20175;-65
2024/01/13 05:19:56;;;;;;;1.30;1.30;;;;;;;-1.15;100.00;59869.47;5030415;28;20180;-63
2024/01/13 05:22:21;;;;;;;1.60;1.50;;;;;;;-0.74;100.00;59901.56;5030198;28;20182;-65
2024/01/13 05:24:47;;;;;;;1.60;1.50;;;;;;;-0.71;100.00;59860.34;5030380;28;20176;-64
2024/01/13 05:27:14;;;;;;;2.20;1.80;;;;;;;-0.88;100.00;59872.00;5032708;28;20197;-64
2024/01/13 05:29:39;;;;;;;1.23;1.23;;;;;;;-0.97;100.00;59904.56;5033745;28;20167;-63
2024/01/13 05:32:05;;;;;;;2.20;1.73;;;;;;;-1.13;100.00;60046.47;5033142;28;20213;-65
2024/01/13 05:34:30;;;;;;;1.40;1.37;;;;;;;-1.03;100.00;59867.84;5033446;28;20185;-65
2024/01/13 05:36:56;;;;;;;1.60;1.50;;;;;;;-1.18;100.00;59856.13;5033714;28;20558;-64
2024/01/13 05:39:21;;;;;;;1.77;1.67;;;;;;;-1.21;100.00;59840.25;5033515;28;20233;-65
2024/01/13 05:41:46;;;;;;;1.40;1.40;;;;;;;-1.28;100.00;59827.44;5033500;28;20523;-65
2024/01/13 05:44:12;;;;;;;1.50;1.40;;;;;;;-1.18;100.00;59838.03;5033180;28;20255;-62
2024/01/13 05:46:37;;;;;;;1.70;1.60;;;;;;;-1.41;100.00;59843.56;5048287;28;20171;-63
2024/01/13 05:49:02;;;;;;;1.20;1.20;;;;;;;-1.37;100.00;59807.97;5034019;28;20185;-65
2024/01/13 05:51:28;;;;;;;1.70;1.60;;;;;;;-1.63;100.00;59784.03;5033556;28;20623;-68
2024/01/13 05:53:54;;;;;;;2.63;2.23;;;;;;;-1.44;100.00;59809.63;5033019;28;20731;-65
2024/01/13 05:56:20;;;;;;;1.60;1.50;;;;;;;-1.84;100.00;59790.66;5033470;28;20262;-67
2024/01/13 05:58:45;;;;;;;3.90;1.80;;;;;;;-1.64;100.00;59802.34;5033157;28;20176;-66
2024/01/13 06:01:10;;;;;;;1.53;1.43;;;;;;;-1.85;100.00;59747.56;5033320;28;20280;-65
2024/01/13 06:03:36;;;;;;;1.50;1.40;;;;;;;-1.62;100.00;59820.16;5033260;28;20202;-64
2024/01/13 06:06:02;;;;;;;1.90;1.80;;;;;;;-1.85;100.00;59832.63;5032707;28;20570;-66
2024/01/13 06:08:28;;;;;;;1.60;1.50;;;;;;;-1.55;100.00;59802.94;5040488;28;20188;-65
2024/01/13 06:10:57;;;;;;;1.73;1.63;;;;;;;-1.85;100.00;59795.09;5032203;28;20189;-62
2024/01/13 06:13:22;;;;;;;1.73;1.63;;;;;;;-2.05;100.00;59764.75;5032846;28;20660;-63
2024/01/13 06:15:48;;;;;;;1.47;1.40;;;;;;;-1.68;100.00;59795.41;5033401;28;20196;-61
2024/01/13 06:18:14;;;;;;;1.97;1.87;;;;;;;-1.70;100.00;59793.16;5037223;28;20531;-64
2024/01/13 06:20:39;;;;;;;3.93;3.53;;;;;;;-1.94;100.00;59737.00;5032934;28;20186;-66
2024/01/13 06:23:05;;;;;;;1.60;1.50;;;;;;;-1.70;100.00;59783.72;5033251;28;20186;-64
2024/01/13 06:25:33;;;;;;;2.43;2.00;;;;;;;-1.67;100.00;59787.06;5032683;28;20201;-65
2024/01/13 06:27:58;;;;;;;6.43;2.37;;;;;;;-1.76;100.00;59759.53;5032452;28;20177;-66
2024/01/13 06:30:24;;;;;;;2.33;2.23;;;;;;;-1.60;100.00;59802.38;5032529;28;20171;-63
2024/01/13 06:32:49;;;;;;;1.70;1.60;;;;;;;-1.56;100.00;59796.25;5032862;28;20234;-67
2024/01/13 06:35:14;;;;;;;3.07;2.53;;;;;;;-1.67;100.00;59774.56;5032584;28;20707;-71
2024/01/13 06:37:40;;;;;;;3.83;2.57;;;;;;;-1.72;100.00;59778.44;5031389;28;20181;-67
2024/01/13 06:40:06;;;;;;;1.30;1.30;;;;;;;-1.29;100.00;59835.81;5032227;28;20175;-68
2024/01/13 06:42:34;;;;;;;2.03;1.60;;;;;;;-1.46;100.00;59764.84;5031902;28;20175;-68
2024/01/13 06:44:59;;;;;;;1.80;1.70;;;;;;;-1.21;100.00;59832.75;5031815;28;20178;-65
2024/01/13 06:47:25;;;;;;;2.03;1.93;;;;;;;-1.51;100.00;59834.91;5032057;28;20260;-67
2024/01/13 06:49:50;;;;;;;1.97;1.83;;;;;;;-1.09;100.00;59873.09;5032006;28;20167;-66
2024/01/13 06:52:19;;;;;;;1.70;1.57;;;;;;;-1.07;100.00;59857.81;5031658;28;20191;-65
2024/01/13 06:54:45;;;;;;;1.50;1.40;;;;;;;-1.15;100.00;59806.84;5031756;28;20171;-65
2024/01/13 06:57:13;;;;;;;2.07;1.97;;;;;;;-0.85;100.00;59884.28;5031606;28;20193;-65
2024/01/13 06:59:38;;;;;;;3.60;2.33;;;;;;;-1.22;100.00;59849.16;5031261;28;20181;-67
2024/01/13 07:02:04;;;;;;;2.07;1.97;;;;;;;-1.25;100.00;59835.81;5030090;28;20266;-64
2024/01/13 07:04:30;;;;;;;2.23;2.13;;;;;;;-0.72;99.82;59876.22;5031228;28;20599;-66
2024/01/13 07:06:55;;;;;;;1.60;1.50;;;;;;;-0.91;97.96;59885.66;5031451;28;20179;-63
2024/01/13 07:09:21;;;;;;;3.90;1.70;;;;;;;-0.82;97.44;59862.56;5031654;28;20201;-67
2024/01/13 07:11:49;;;;;;;1.63;1.53;;;;;;;-1.06;96.86;59863.91;5031388;28;20167;-66
2024/01/13 07:14:15;;;;;;;1.87;1.77;;;;;;;-1.07;96.32;59860.88;5031239;28;20185;-66
2024/01/13 07:16:40;;;;;;;1.60;1.50;;;;;;;-0.79;96.84;59918.53;5031347;28;20663;-65
2024/01/13 07:19:07;;;;;;;2.00;1.40;;;;;;;-0.77;97.49;60058.59;5032102;28;20175;-66
2024/01/13 07:21:33;;;;;;;3.67;1.70;;;;;;;-0.63;97.79;59903.78;5029651;28;20260;-66
2024/01/13 07:23:58;;;;;;;2.30;1.70;;;;;;;-0.66;96.74;59913.53;5032324;28;20491;-61
2024/01/13 07:26:23;;;;;;;1.47;1.37;;;;;;;-0.53;96.11;59907.97;5036985;28;20251;-67
2024/01/13 07:28:49;;;;;;;2.53;2.33;;;;;;;-0.79;94.86;59913.53;5031329;28;20172;-66
2024/01/13 07:31:14;;;;;;;2.53;2.33;;;;;;;-0.50;93.96;59923.84;5031152;28;20697;-63
2024/01/13 07:33:40;;;;;;;1.47;1.40;;;;;;;-0.70;93.10;59941.09;5059769;28;20238;-66
2024/01/13 07:36:06;;;;;;;4.33;2.40;;;;;;;-0.38;93.81;59921.09;5030025;28;20560;-63
2024/01/13 07:38:31;;;;;;;1.90;1.40;;;;;;;-0.27;93.37;59913.84;5030987;28;20175;-66
2024/01/13 07:40:57;;;;;;;1.33;1.27;;;;;;;-0.40;93.06;60127.53;5031301;28;20257;-64
2024/01/13 07:43:25;;;;;;;1.53;1.43;;;;;;;-0.52;90.49;59896.56;5030881;28;20632;-66
2024/01/13 07:45:51;;;;;;;1.77;1.67;;;;;;;-0.51;92.05;60028.03;5029695;28;20530;-63
2024/01/13 07:48:16;;;;;;;4.73;2.00;;;;;;;-0.20;91.82;59958.72;5030850;28;20175;-62
2024/01/13 07:50:41;;;;;;;1.67;1.57;;;;;;;-0.38;91.40;59928.59;5030602;28;20178;-62
2024/01/13 07:53:07;;;;;;;2.57;1.90;;;;;;;-0.03;89.42;59935.59;5029470;28;20201;-66
2024/01/13 07:55:33;;;;;;;1.87;1.77;;;;;;;-0.18;89.05;59959.00;5030721;28;20663;-68
2024/01/13 07:57:58;;;;;;;1.50;1.40;;;;;;;-0.09;88.64;60031.19;5029446;28;20184;-64
2024/01/13 08:00:25;;;;;;;2.23;1.60;;;;;;;-0.18;87.46;59928.31;5031028;28;20246;-63
2024/01/13 08:02:51;;;;;;;1.77;1.67;;;;;;;-0.22;87.04;59906.88;5031087;28;20168;-67
2024/01/13 08:05:16;;;;;;;1.30;1.30;;;;;;;-0.01;88.28;59967.94;5030728;28;20290;-63
2024/01/13 08:07:42;;;;;;;2.37;2.17;;;;;;;-0.10;88.06;59930.31;5030524;28;20559;-67
2024/01/13 08:10:09;;;;;;;1.73;1.60;;;;;;;-0.31;88.62;59953.97;5030882;28;20184;-65
2024/01/13 08:12:35;;;;;;;1.63;1.53;;;;;;;0.19;89.05;59961.50;5030665;28;20192;-65
2024/01/13 08:15:00;;;;;;;2.03;1.83;;;;;;;-0.03;89.30;59950.09;5030813;28;20181;-64
2024/01/13 08:17:26;;;;;;;1.97;1.83;;;;;;;0.42;86.67;59980.22;5030305;28;20178;-65
2024/01/13 08:19:51;;;;;;;1.50;1.40;;;;;;;0.13;84.87;59965.44;5038280;28;20265;-68
2024/01/13 08:22:16;;;;;;;2.20;2.00;;;;;;;0.45;86.59;59985.53;5030054;28;20553;-68
2024/01/13 08:24:48;;;;;;;1.10;1.10;;;;;;;0.40;85.10;59988.03;5034934;28;20190;-65
2024/01/13 08:27:13;;;;;;;1.27;1.27;;;;;;;0.48;85.13;60020.94;5031318;28;20214;-67
2024/01/13 08:29:39;;;;;;;2.70;2.07;;;;;;;0.55;85.63;59976.59;5034075;28;20194;-69
2024/01/13 08:32:04;;;;;;;2.23;2.00;;;;;;;0.64;85.79;60008.69;5036032;28;20183;-62
2024/01/13 08:34:33;;;;;;;1.60;1.50;;;;;;;0.46;85.47;59994.19;4802555;28;20801;-67
2024/01/13 08:36:58;;;;;;;7.90;2.23;;;;;;;0.56;84.52;60000.28;4454089;28;20930;-63
2024/01/13 08:39:24;;;;;;;1.77;1.67;;;;;;;0.51;85.45;60009.78;4666794;28;20699;-68
2024/01/13 08:41:49;;;;;;;2.13;2.03;;;;;;;0.72;84.29;60098.56;5036757;28;20302;-66
2024/01/13 08:44:15;;;;;;;1.30;1.30;;;;;;;0.46;84.13;60019.28;4603273;28;20331;-66
2024/01/13 08:46:44;;;;;;;2.10;2.00;;;;;;;0.85;84.55;60004.47;4706788;28;20256;-68
2024/01/13 08:49:09;;;;;;;1.40;1.30;;;;;;;0.92;84.47;60155.00;4898042;28;21297;-65
2024/01/13 08:51:35;;;;;;;1.13;1.13;;;;;;;0.69;84.53;60052.50;5030028;28;20249;-65
2024/01/13 08:54:01;;;;;;;1.13;1.13;;;;;;;1.08;81.08;60077.91;5028767;28;20217;-65
2024/01/13 08:56:27;;;;;;;2.80;1.70;;;;;;;1.26;81.17;60090.47;5028732;28;20175;-68
2024/01/13 08:58:52;;;;;;;1.50;1.40;;;;;;;1.12;81.37;60056.69;5037248;28;20252;-68
2024/01/13 09:01:18;;;;;;;1.33;1.23;;;;;;;0.97;81.28;60009.78;5031206;28;20184;-68
2024/01/13 09:03:45;;;;;;;1.73;1.63;;;;;;;1.14;80.42;60212.84;5041166;28;20175;-69
2024/01/13 09:06:11;;;;;;;1.20;1.20;;;;;;;1.49;79.88;60082.38;5034233;28;20565;-69
2024/01/13 09:08:36;;;;;;;1.53;1.43;;;;;;;1.12;79.33;60036.56;5037866;28;20183;-68
2024/01/13 09:11:02;;;;;;;1.70;1.60;;;;;;;1.38;80.67;60070.66;5042732;28;20728;-67
2024/01/13 09:13:27;;;;;;;2.03;1.93;;;;;;;1.42;78.97;60107.81;5034301;28;20203;-66
2024/01/13 09:15:53;;;;;;;1.77;1.67;;;;;;;1.50;78.85;60144.41;5040818;28;20189;-72
2024/01/13 09:18:18;;;;;;;2.00;1.90;;;;;;;1.44;79.05;60114.50;5038091;28;20186;-72
2024/01/13 09:20:44;;;;;;;2.30;1.33;;;;;;;1.55;77.68;60109.75;5043079;28;20183;-74
2024/01/13 09:23:09;;;;;;;1.23;1.23;;;;;;;1.69;76.47;60117.31;5034866;28;20679;-72
2024/01/13 09:25:35;;;;;;;2.27;1.97;;;;;;;1.47;77.41;60105.28;5040664;28;20666;-70
2024/01/13 09:28:00;;;;;;;2.07;1.97;;;;;;;1.19;77.68;60044.41;5044052;28;20187;-69
2024/01/13 09:30:26;;;;;;;1.20;1.20;;;;;;;1.60;78.04;60095.22;5040140;28;20198;-71
2024/01/13 09:32:51;;;;;;;1.07;1.07;;;;;;;1.23;78.05;60051.94;5038388;28;20242;-75
2024/01/13 09:35:17;;;;;;;1.37;1.27;;;;;;;1.41;78.23;60063.94;5042798;28;20696;-75
2024/01/13 09:37:43;;;;;;;1.80;1.70;;;;;;;1.55;78.12;60119.25;5044948;28;20187;-72
2024/01/13 09:40:10;;;;;;;1.80;1.70;;;;;;;1.32;77.63;60229.94;5063378;28;20182;-72
2024/01/13 09:42:58;;;;;;;1.83;1.73;;;;;;;1.55;76.57;60081.53;5041764;28;20282;-68
2024/01/13 09:45:24;;;;;;;1.50;1.40;;;;;;;1.64;78.02;60079.00;5039572;28;20217;-69
2024/01/13 09:47:50;;;;;;;1.53;1.43;;;;;;;1.40;76.16;60067.84;5057904;28;20254;-70
2024/01/13 09:50:16;;;;;;;1.30;1.30;;;;;;;1.46;78.44;60233.03;5049102;28;20184;-68
2024/01/13 09:52:44;;;;;;;1.70;1.60;;;;;;;1.76;76.31;60110.56;5043180;28;20282;-65
2024/01/13 09:55:13;;;;;;;1.10;1.10;;;;;;;1.51;76.02;60087.69;5045451;28;20343;-67
2024/01/13 09:57:39;;;;;;;2.00;1.50;;;;;;;1.86;76.33;60123.72;5046581;28;20206;-67
2024/01/13 10:00:08;;;;;;;1.43;1.40;;;;;;;1.96;76.85;60122.31;5046515;28;20175;-66
2024/01/13 10:02:34;;;;;;;2.20;2.00;;;;;;;1.74;77.41;60095.22;5045206;28;20179;-67
2024/01/13 10:04:59;;;;;;;1.63;1.53;;;;;;;1.78;73.95;60092.69;5045264;28;20607;-68
2024/01/13 10:07:25;;;;;;;2.50;2.30;;;;;;;1.67;74.06;60115.63;5045063;28;20183;-67
2024/01/13 10:09:50;;;;;;;1.93;1.83;;;;;;;2.03;75.84;60104.97;5053158;28;20186;-67
2024/01/13 10:12:16;;;;;;;1.37;1.33;;;;;;;2.09;75.31;60148.84;5041924;28;20206;-70
2024/01/13 10:14:44;;;;;;;2.00;1.90;;;;;;;1.97;74.58;60148.03;5049092;28;20194;-72
2024/01/13 10:17:10;;;;;;;1.70;1.60;;;;;;;1.85;74.38;60099.41;5044417;28;20194;-68
2024/01/13 10:19:40;;;;;;;1.40;1.30;;;;;;;1.87;75.50;60122.31;5043942;28;20185;-69
2024/01/13 10:22:06;;;;;;;1.50;1.40;;;;;;;1.92;74.74;60115.31;5042866;28;20276;-69
2024/01/13 10:24:33;;;;;;;1.60;1.50;;;;;;;1.98;75.85;60081.75;5041809;28;20171;-71
2024/01/13 10:26:58;;;;;;;1.50;1.40;;;;;;;2.13;76.07;60148.28;5033187;28;20279;-68
2024/01/13 10:29:24;;;;;;;1.57;1.47;;;;;;;2.18;75.74;60134.28;5033818;28;20265;-72
2024/01/13 10:31:51;;;;;;;1.73;1.63;;;;;;;2.21;74.66;60147.19;5033389;28;20267;-70
2024/01/13 10:34:21;;;;;;;1.30;1.30;;;;;;;2.28;74.17;60109.09;5033216;28;20316;-66
2024/01/13 10:36:46;;;;;;;1.33;1.33;;;;;;;1.89;73.23;60273.09;5032532;28;20183;-69
2024/01/13 10:39:12;;;;;;;1.57;1.47;;;;;;;2.18;75.46;60169.00;5031225;28;20172;-69
2024/01/13 10:41:43;;;;;;;1.90;1.80;;;;;;;2.66;75.14;60222.69;5031557;28;20199;-69
2024/01/13 10:44:09;;;;;;;1.30;1.30;;;;;;;2.47;74.25;60370.25;5031870;28;20159;-70
2024/01/13 10:46:41;;;;;;;1.10;1.10;;;;;;;2.19;75.29;60153.06;5035186;28;20198;-68
2024/01/13 10:49:18;;;;;;;1.13;1.13;;;;;;;2.76;74.52;60217.66;5031392;28;20172;-67
2024/01/13 10:51:58;;;;;;;1.70;1.60;;;;;;;2.67;72.92;60185.44;5032116;28;20203;-69
2024/01/13 10:54:27;;;;;;;2.10;1.90;;;;;;;2.16;73.72;60164.25;5068325;28;20175;-67
2024/01/13 10:56:54;;;;;;;1.20;1.20;;;;;;;2.27;73.13;60193.63;5033540;28;20168;-68
2024/01/13 10:59:19;;;;;;;1.33;1.30;;;;;;;2.18;73.17;60154.44;5032907;28;20175;-67
2024/01/13 11:01:46;;;;;;;1.20;1.20;;;;;;;2.35;73.64;60147.72;5030206;28;20646;-68
2024/01/13 11:04:12;;;;;;;1.50;1.40;;;;;;;2.78;73.55;60200.25;5030640;28;20231;-67
2024/01/13 11:06:38;;;;;;;1.80;1.70;;;;;;;2.87;74.14;60308.09;5030054;28;20175;-71
2024/01/13 11:09:05;;;;;;;2.77;2.10;;;;;;;2.94;75.39;60406.75;5039366;28;20183;-66
2024/01/13 11:11:40;;;;;;;1.30;1.27;;;;;;;2.96;73.16;60240.03;5041055;28;20192;-71
2024/01/13 11:14:11;;;;;;;1.33;1.23;;;;;;;2.90;71.90;60221.25;5031247;28;20207;-72
2024/01/13 11:16:38;;;;;;;3.57;2.23;;;;;;;2.89;72.33;60229.66;5040662;28;20195;-71
2024/01/13 11:19:06;;;;;;;1.70;1.60;;;;;;;2.86;71.18;60193.53;5031878;28;20178;-71
2024/01/13 11:21:35;;;;;;;1.17;1.17;;;;;;;2.52;72.18;60133.97;5032031;28;20175;-71
2024/01/13 11:24:07;;;;;;;1.73;1.63;;;;;;;2.68;72.61;60184.59;5031064;28;20584;-70
2024/01/13 11:26:43;;;;;;;1.60;1.50;;;;;;;3.09;72.00;60254.59;5037678;28;20183;-69